sensor_id;sensor_type;location;lat;lon;timestamp;pressure;altitude;pressure_sealevel;temperature
70831;BMP180;58451;51.550;7.208;2022-12-07T00:01:24;100874.80;;;4.80
70831;BMP180;58451;51.550;7.208;2022-12-07T00:02:55;100874.80;;;4.80
70831;BMP180;58451;51.550;7.208;2022-12-07T00:04:27;100873.60;;;4.80
70831;BMP180;58451;51.550;7.208;2022-12-07T00:06:03;100879.40;;;4.80
70831;BMP180;58451;51.550;7.208;2022-12-07T00:07:35;100877.40;;;4.80
70831;BMP180;58451;51.550;7.208;2022-12-07T00:09:15;100875.60;;;4.80
70831;BMP180;58451;51.550;7.208;2022-12-07T00:10:47;100875.20;;;4.80
70831;BMP180;58451;51.550;7.208;2022-12-07T00:12:43;100878.40;;;4.80
70831;BMP180;58451;51.550;7.208;2022-12-07T00:14:18;100881.00;;;4.80
70831;BMP180;58451;51.550;7.208;2022-12-07T00:15:52;100876.60;;;4.80
70831;BMP180;58451;51.550;7.208;2022-12-07T00:17:24;100876.20;;;4.80
70831;BMP180;58451;51.550;7.208;2022-12-07T00:18:56;100872.00;;;4.80
70831;BMP180;58451;51.550;7.208;2022-12-07T00:20:28;100866.40;;;4.80
70831;BMP180;58451;51.550;7.208;2022-12-07T00:22:00;100865.00;;;4.80
70831;BMP180;58451;51.550;7.208;2022-12-07T00:23:33;100864.00;;;4.80
70831;BMP180;58451;51.550;7.208;2022-12-07T00:25:09;100861.20;;;4.80
70831;BMP180;58451;51.550;7.208;2022-12-07T00:26:42;100864.40;;;4.80
70831;BMP180;58451;51.550;7.208;2022-12-07T00:28:13;100866.80;;;4.76
70831;BMP180;58451;51.550;7.208;2022-12-07T00:29:44;100863.00;;;4.74
70831;BMP180;58451;51.550;7.208;2022-12-07T00:31:18;100863.60;;;4.72
70831;BMP180;58451;51.550;7.208;2022-12-07T00:32:50;100865.80;;;4.70
70831;BMP180;58451;51.550;7.208;2022-12-07T00:34:22;100862.80;;;4.70
70831;BMP180;58451;51.550;7.208;2022-12-07T00:35:57;100858.80;;;4.70
70831;BMP180;58451;51.550;7.208;2022-12-07T00:37:28;100862.60;;;4.70
70831;BMP180;58451;51.550;7.208;2022-12-07T00:39:00;100859.80;;;4.70
70831;BMP180;58451;51.550;7.208;2022-12-07T00:40:33;100861.80;;;4.70
70831;BMP180;58451;51.550;7.208;2022-12-07T00:42:04;100859.80;;;4.70
70831;BMP180;58451;51.550;7.208;2022-12-07T00:43:35;100858.00;;;4.70
70831;BMP180;58451;51.550;7.208;2022-12-07T00:45:07;100859.60;;;4.70
70831;BMP180;58451;51.550;7.208;2022-12-07T00:46:39;100856.00;;;4.70
70831;BMP180;58451;51.550;7.208;2022-12-07T00:48:11;100857.40;;;4.70
70831;BMP180;58451;51.550;7.208;2022-12-07T00:49:42;100857.60;;;4.70
70831;BMP180;58451;51.550;7.208;2022-12-07T00:51:17;100861.00;;;4.70
70831;BMP180;58451;51.550;7.208;2022-12-07T00:52:50;100855.20;;;4.70
70831;BMP180;58451;51.550;7.208;2022-12-07T00:54:21;100856.80;;;4.70
70831;BMP180;58451;51.550;7.208;2022-12-07T00:55:54;100851.00;;;4.70
70831;BMP180;58451;51.550;7.208;2022-12-07T00:57:26;100851.00;;;4.70
70831;BMP180;58451;51.550;7.208;2022-12-07T00:59:03;100847.20;;;4.70
70831;BMP180;58451;51.550;7.208;2022-12-07T01:00:40;100848.00;;;4.70
70831;BMP180;58451;51.550;7.208;2022-12-07T01:02:12;100847.00;;;4.70
70831;BMP180;58451;51.550;7.208;2022-12-07T01:03:43;100848.20;;;4.70
70831;BMP180;58451;51.550;7.208;2022-12-07T01:05:14;100845.60;;;4.70
70831;BMP180;58451;51.550;7.208;2022-12-07T01:06:45;100843.80;;;4.70
70831;BMP180;58451;51.550;7.208;2022-12-07T01:08:17;100840.60;;;4.70
70831;BMP180;58451;51.550;7.208;2022-12-07T01:09:49;100839.60;;;4.70
70831;BMP180;58451;51.550;7.208;2022-12-07T01:11:24;100840.80;;;4.70
70831;BMP180;58451;51.550;7.208;2022-12-07T01:12:57;100832.40;;;4.70
70831;BMP180;58451;51.550;7.208;2022-12-07T01:14:28;100840.00;;;4.70
70831;BMP180;58451;51.550;7.208;2022-12-07T01:16:03;100832.60;;;4.70
70831;BMP180;58451;51.550;7.208;2022-12-07T01:17:34;100840.00;;;4.70
70831;BMP180;58451;51.550;7.208;2022-12-07T01:19:06;100834.60;;;4.70
70831;BMP180;58451;51.550;7.208;2022-12-07T01:20:37;100844.00;;;4.70
70831;BMP180;58451;51.550;7.208;2022-12-07T01:22:08;100839.20;;;4.70
70831;BMP180;58451;51.550;7.208;2022-12-07T01:23:40;100835.80;;;4.70
70831;BMP180;58451;51.550;7.208;2022-12-07T01:25:12;100831.40;;;4.70
70831;BMP180;58451;51.550;7.208;2022-12-07T01:26:44;100835.40;;;4.70
70831;BMP180;58451;51.550;7.208;2022-12-07T01:28:15;100828.40;;;4.70
70831;BMP180;58451;51.550;7.208;2022-12-07T01:29:46;100837.40;;;4.70
70831;BMP180;58451;51.550;7.208;2022-12-07T01:31:21;100834.60;;;4.66
70831;BMP180;58451;51.550;7.208;2022-12-07T01:32:52;100836.20;;;4.66
70831;BMP180;58451;51.550;7.208;2022-12-07T01:34:24;100839.20;;;4.62
70831;BMP180;58451;51.550;7.208;2022-12-07T01:36:14;100843.00;;;4.60
70831;BMP180;58451;51.550;7.208;2022-12-07T01:37:45;100847.80;;;4.60
70831;BMP180;58451;51.550;7.208;2022-12-07T01:39:16;100843.20;;;4.60
70831;BMP180;58451;51.550;7.208;2022-12-07T01:40:55;100841.60;;;4.60
70831;BMP180;58451;51.550;7.208;2022-12-07T01:42:26;100839.80;;;4.60
70831;BMP180;58451;51.550;7.208;2022-12-07T01:45:50;100844.60;;;4.60
70831;BMP180;58451;51.550;7.208;2022-12-07T01:47:21;100846.60;;;4.60
70831;BMP180;58451;51.550;7.208;2022-12-07T01:48:52;100847.60;;;4.60
70831;BMP180;58451;51.550;7.208;2022-12-07T01:50:30;100847.00;;;4.60
70831;BMP180;58451;51.550;7.208;2022-12-07T01:53:48;100847.60;;;4.60
70831;BMP180;58451;51.550;7.208;2022-12-07T01:55:19;100846.80;;;4.60
70831;BMP180;58451;51.550;7.208;2022-12-07T01:56:54;100847.40;;;4.60
70831;BMP180;58451;51.550;7.208;2022-12-07T01:58:28;100847.40;;;4.60
70831;BMP180;58451;51.550;7.208;2022-12-07T02:00:00;100848.60;;;4.60
70831;BMP180;58451;51.550;7.208;2022-12-07T02:01:43;100846.40;;;4.60
70831;BMP180;58451;51.550;7.208;2022-12-07T02:03:24;100840.20;;;4.60
70831;BMP180;58451;51.550;7.208;2022-12-07T02:05:00;100846.20;;;4.60
70831;BMP180;58451;51.550;7.208;2022-12-07T02:06:31;100844.60;;;4.60
70831;BMP180;58451;51.550;7.208;2022-12-07T02:08:03;100840.40;;;4.60
70831;BMP180;58451;51.550;7.208;2022-12-07T02:09:35;100841.60;;;4.60
70831;BMP180;58451;51.550;7.208;2022-12-07T02:11:08;100835.20;;;4.60
70831;BMP180;58451;51.550;7.208;2022-12-07T02:12:40;100839.40;;;4.60
70831;BMP180;58451;51.550;7.208;2022-12-07T02:14:11;100832.20;;;4.64
70831;BMP180;58451;51.550;7.208;2022-12-07T02:17:35;100837.00;;;4.64
70831;BMP180;58451;51.550;7.208;2022-12-07T02:25:09;100825.40;;;4.60
70831;BMP180;58451;51.550;7.208;2022-12-07T02:29:05;100831.60;;;4.60
70831;BMP180;58451;51.550;7.208;2022-12-07T02:30:46;100832.40;;;4.60
70831;BMP180;58451;51.550;7.208;2022-12-07T02:34:11;100835.60;;;4.60
70831;BMP180;58451;51.550;7.208;2022-12-07T02:35:53;100839.40;;;4.60
70831;BMP180;58451;51.550;7.208;2022-12-07T02:37:40;100839.40;;;4.60
70831;BMP180;58451;51.550;7.208;2022-12-07T02:39:23;100836.20;;;4.58
70831;BMP180;58451;51.550;7.208;2022-12-07T02:41:16;100836.60;;;4.50
70831;BMP180;58451;51.550;7.208;2022-12-07T02:42:56;100832.60;;;4.50
70831;BMP180;58451;51.550;7.208;2022-12-07T02:44:30;100833.00;;;4.50
70831;BMP180;58451;51.550;7.208;2022-12-07T02:46:08;100839.20;;;4.50
70831;BMP180;58451;51.550;7.208;2022-12-07T02:47:41;100835.40;;;4.44
70831;BMP180;58451;51.550;7.208;2022-12-07T02:49:14;100838.20;;;4.42
70831;BMP180;58451;51.550;7.208;2022-12-07T02:50:51;100835.00;;;4.40
70831;BMP180;58451;51.550;7.208;2022-12-07T02:52:23;100837.80;;;4.40
70831;BMP180;58451;51.550;7.208;2022-12-07T02:53:54;100836.00;;;4.40
70831;BMP180;58451;51.550;7.208;2022-12-07T02:55:37;100833.00;;;4.40
70831;BMP180;58451;51.550;7.208;2022-12-07T03:01:37;100836.20;;;4.30
70831;BMP180;58451;51.550;7.208;2022-12-07T03:03:14;100837.20;;;4.30
70831;BMP180;58451;51.550;7.208;2022-12-07T03:05:25;100831.00;;;4.30
70831;BMP180;58451;51.550;7.208;2022-12-07T03:11:09;100830.40;;;4.20
70831;BMP180;58451;51.550;7.208;2022-12-07T03:14:35;100833.00;;;4.14
70831;BMP180;58451;51.550;7.208;2022-12-07T03:17:58;100833.00;;;4.10
70831;BMP180;58451;51.550;7.208;2022-12-07T03:19:35;100834.00;;;4.10
70831;BMP180;58451;51.550;7.208;2022-12-07T03:21:14;100836.00;;;4.04
70831;BMP180;58451;51.550;7.208;2022-12-07T03:22:46;100840.40;;;4.00
70831;BMP180;58451;51.550;7.208;2022-12-07T03:24:24;100839.80;;;4.00
70831;BMP180;58451;51.550;7.208;2022-12-07T03:26:00;100834.80;;;4.00
70831;BMP180;58451;51.550;7.208;2022-12-07T03:27:38;100834.80;;;3.96
70831;BMP180;58451;51.550;7.208;2022-12-07T03:29:40;100840.80;;;3.90
70831;BMP180;58451;51.550;7.208;2022-12-07T03:31:36;100836.60;;;3.90
70831;BMP180;58451;51.550;7.208;2022-12-07T03:35:34;100835.80;;;3.80
70831;BMP180;58451;51.550;7.208;2022-12-07T03:39:45;100827.80;;;3.70
70831;BMP180;58451;51.550;7.208;2022-12-07T03:41:34;100823.00;;;3.68
70831;BMP180;58451;51.550;7.208;2022-12-07T03:43:16;100816.80;;;3.60
70831;BMP180;58451;51.550;7.208;2022-12-07T03:44:53;100818.20;;;3.60
70831;BMP180;58451;51.550;7.208;2022-12-07T03:46:42;100815.80;;;3.52
70831;BMP180;58451;51.550;7.208;2022-12-07T03:48:33;100823.00;;;3.50
70831;BMP180;58451;51.550;7.208;2022-12-07T03:53:53;100824.40;;;3.40
70831;BMP180;58451;51.550;7.208;2022-12-07T03:55:36;100822.40;;;3.38
70831;BMP180;58451;51.550;7.208;2022-12-07T03:57:11;100819.20;;;3.30
70831;BMP180;58451;51.550;7.208;2022-12-07T03:58:43;100819.00;;;3.30
70831;BMP180;58451;51.550;7.208;2022-12-07T04:00:15;100822.20;;;3.30
70831;BMP180;58451;51.550;7.208;2022-12-07T04:01:55;100820.60;;;3.26
70831;BMP180;58451;51.550;7.208;2022-12-07T04:03:29;100820.40;;;3.22
70831;BMP180;58451;51.550;7.208;2022-12-07T04:05:00;100817.60;;;3.20
70831;BMP180;58451;51.550;7.208;2022-12-07T04:06:32;100816.00;;;3.20
70831;BMP180;58451;51.550;7.208;2022-12-07T04:08:04;100819.40;;;3.20
70831;BMP180;58451;51.550;7.208;2022-12-07T04:09:35;100818.20;;;3.20
70831;BMP180;58451;51.550;7.208;2022-12-07T04:11:06;100820.00;;;3.20
70831;BMP180;58451;51.550;7.208;2022-12-07T04:12:37;100818.80;;;3.20
70831;BMP180;58451;51.550;7.208;2022-12-07T04:14:08;100820.20;;;3.20
70831;BMP180;58451;51.550;7.208;2022-12-07T04:15:49;100819.60;;;3.20
70831;BMP180;58451;51.550;7.208;2022-12-07T04:17:20;100820.20;;;3.20
70831;BMP180;58451;51.550;7.208;2022-12-07T04:18:51;100817.20;;;3.20
70831;BMP180;58451;51.550;7.208;2022-12-07T04:20:23;100820.60;;;3.20
70831;BMP180;58451;51.550;7.208;2022-12-07T04:21:57;100821.60;;;3.20
70831;BMP180;58451;51.550;7.208;2022-12-07T04:23:29;100830.80;;;3.20
70831;BMP180;58451;51.550;7.208;2022-12-07T04:25:00;100826.60;;;3.20
70831;BMP180;58451;51.550;7.208;2022-12-07T04:26:31;100822.20;;;3.20
70831;BMP180;58451;51.550;7.208;2022-12-07T04:28:03;100829.00;;;3.20
70831;BMP180;58451;51.550;7.208;2022-12-07T04:29:34;100827.80;;;3.20
70831;BMP180;58451;51.550;7.208;2022-12-07T04:31:05;100826.60;;;3.20
70831;BMP180;58451;51.550;7.208;2022-12-07T04:32:36;100821.40;;;3.20
70831;BMP180;58451;51.550;7.208;2022-12-07T04:34:08;100815.80;;;3.24
70831;BMP180;58451;51.550;7.208;2022-12-07T04:35:39;100820.80;;;3.22
70831;BMP180;58451;51.550;7.208;2022-12-07T04:37:12;100818.00;;;3.30
70831;BMP180;58451;51.550;7.208;2022-12-07T04:38:43;100821.60;;;3.30
70831;BMP180;58451;51.550;7.208;2022-12-07T04:40:14;100821.00;;;3.30
70831;BMP180;58451;51.550;7.208;2022-12-07T04:41:46;100819.80;;;3.30
70831;BMP180;58451;51.550;7.208;2022-12-07T04:43:17;100820.80;;;3.30
70831;BMP180;58451;51.550;7.208;2022-12-07T04:44:48;100822.40;;;3.30
70831;BMP180;58451;51.550;7.208;2022-12-07T04:46:19;100823.00;;;3.30
70831;BMP180;58451;51.550;7.208;2022-12-07T04:47:50;100821.00;;;3.30
70831;BMP180;58451;51.550;7.208;2022-12-07T04:49:21;100824.40;;;3.30
70831;BMP180;58451;51.550;7.208;2022-12-07T04:50:53;100823.00;;;3.32
70831;BMP180;58451;51.550;7.208;2022-12-07T04:52:24;100822.60;;;3.38
70831;BMP180;58451;51.550;7.208;2022-12-07T04:53:56;100823.80;;;3.40
70831;BMP180;58451;51.550;7.208;2022-12-07T04:55:27;100818.60;;;3.40
70831;BMP180;58451;51.550;7.208;2022-12-07T04:56:58;100815.40;;;3.40
70831;BMP180;58451;51.550;7.208;2022-12-07T04:58:29;100814.40;;;3.40
70831;BMP180;58451;51.550;7.208;2022-12-07T05:00:01;100814.20;;;3.40
70831;BMP180;58451;51.550;7.208;2022-12-07T05:01:33;100813.60;;;3.40
70831;BMP180;58451;51.550;7.208;2022-12-07T05:03:05;100809.80;;;3.40
70831;BMP180;58451;51.550;7.208;2022-12-07T05:04:36;100808.00;;;3.40
70831;BMP180;58451;51.550;7.208;2022-12-07T05:06:09;100808.20;;;3.40
70831;BMP180;58451;51.550;7.208;2022-12-07T05:07:44;100806.60;;;3.40
70831;BMP180;58451;51.550;7.208;2022-12-07T05:09:15;100805.40;;;3.40
70831;BMP180;58451;51.550;7.208;2022-12-07T05:10:49;100806.20;;;3.40
70831;BMP180;58451;51.550;7.208;2022-12-07T05:12:23;100807.20;;;3.40
70831;BMP180;58451;51.550;7.208;2022-12-07T05:13:54;100811.40;;;3.40
70831;BMP180;58451;51.550;7.208;2022-12-07T05:28:57;100815.20;;;3.30
70831;BMP180;58451;51.550;7.208;2022-12-07T05:30:29;100819.00;;;3.30
70831;BMP180;58451;51.550;7.208;2022-12-07T05:32:02;100818.60;;;3.30
70831;BMP180;58451;51.550;7.208;2022-12-07T05:33:34;100817.00;;;3.30
70831;BMP180;58451;51.550;7.208;2022-12-07T05:35:07;100816.80;;;3.30
70831;BMP180;58451;51.550;7.208;2022-12-07T05:36:40;100810.00;;;3.30
70831;BMP180;58451;51.550;7.208;2022-12-07T05:38:11;100808.80;;;3.30
70831;BMP180;58451;51.550;7.208;2022-12-07T05:39:43;100816.00;;;3.30
70831;BMP180;58451;51.550;7.208;2022-12-07T05:41:18;100813.00;;;3.30
70831;BMP180;58451;51.550;7.208;2022-12-07T05:43:10;100810.20;;;3.32
70831;BMP180;58451;51.550;7.208;2022-12-07T05:44:46;100806.60;;;3.30
70831;BMP180;58451;51.550;7.208;2022-12-07T05:46:18;100808.40;;;3.30
70831;BMP180;58451;51.550;7.208;2022-12-07T05:47:50;100807.20;;;3.32
70831;BMP180;58451;51.550;7.208;2022-12-07T05:49:22;100804.20;;;3.40
70831;BMP180;58451;51.550;7.208;2022-12-07T05:50:54;100799.80;;;3.40
70831;BMP180;58451;51.550;7.208;2022-12-07T05:52:26;100802.20;;;3.40
70831;BMP180;58451;51.550;7.208;2022-12-07T05:53:58;100804.40;;;3.40
70831;BMP180;58451;51.550;7.208;2022-12-07T05:55:30;100808.40;;;3.40
70831;BMP180;58451;51.550;7.208;2022-12-07T05:57:02;100808.80;;;3.40
70831;BMP180;58451;51.550;7.208;2022-12-07T05:58:35;100808.40;;;3.40
70831;BMP180;58451;51.550;7.208;2022-12-07T06:00:26;100809.60;;;3.42
70831;BMP180;58451;51.550;7.208;2022-12-07T06:02:05;100807.60;;;3.40
70831;BMP180;58451;51.550;7.208;2022-12-07T06:03:37;100812.00;;;3.46
70831;BMP180;58451;51.550;7.208;2022-12-07T06:05:09;100807.00;;;3.50
70831;BMP180;58451;51.550;7.208;2022-12-07T06:06:41;100806.00;;;3.50
70831;BMP180;58451;51.550;7.208;2022-12-07T06:08:13;100812.00;;;3.50
70831;BMP180;58451;51.550;7.208;2022-12-07T06:09:46;100811.60;;;3.50
70831;BMP180;58451;51.550;7.208;2022-12-07T06:11:18;100810.20;;;3.50
70831;BMP180;58451;51.550;7.208;2022-12-07T06:13:09;100809.20;;;3.50
70831;BMP180;58451;51.550;7.208;2022-12-07T06:14:45;100806.40;;;3.48
70831;BMP180;58451;51.550;7.208;2022-12-07T06:16:17;100805.20;;;3.44
70831;BMP180;58451;51.550;7.208;2022-12-07T06:17:49;100805.80;;;3.46
70831;BMP180;58451;51.550;7.208;2022-12-07T06:19:21;100800.80;;;3.50
70831;BMP180;58451;51.550;7.208;2022-12-07T06:20:53;100804.00;;;3.50
70831;BMP180;58451;51.550;7.208;2022-12-07T06:22:25;100799.20;;;3.42
70831;BMP180;58451;51.550;7.208;2022-12-07T06:23:57;100797.00;;;3.40
70831;BMP180;58451;51.550;7.208;2022-12-07T06:25:29;100796.20;;;3.42
70831;BMP180;58451;51.550;7.208;2022-12-07T06:27:01;100795.60;;;3.40
70831;BMP180;58451;51.550;7.208;2022-12-07T06:28:33;100798.60;;;3.40
70831;BMP180;58451;51.550;7.208;2022-12-07T06:30:05;100802.80;;;3.40
70831;BMP180;58451;51.550;7.208;2022-12-07T06:31:38;100802.80;;;3.40
70831;BMP180;58451;51.550;7.208;2022-12-07T06:33:11;100805.20;;;3.40
70831;BMP180;58451;51.550;7.208;2022-12-07T06:34:43;100806.00;;;3.40
70831;BMP180;58451;51.550;7.208;2022-12-07T06:36:14;100808.60;;;3.38
70831;BMP180;58451;51.550;7.208;2022-12-07T06:37:46;100810.20;;;3.38
70831;BMP180;58451;51.550;7.208;2022-12-07T06:39:25;100807.40;;;3.32
70831;BMP180;58451;51.550;7.208;2022-12-07T06:41:00;100807.00;;;3.34
70831;BMP180;58451;51.550;7.208;2022-12-07T06:42:32;100815.80;;;3.40
70831;BMP180;58451;51.550;7.208;2022-12-07T06:44:05;100813.20;;;3.40
70831;BMP180;58451;51.550;7.208;2022-12-07T06:45:37;100814.60;;;3.34
70831;BMP180;58451;51.550;7.208;2022-12-07T06:47:09;100814.60;;;3.30
70831;BMP180;58451;51.550;7.208;2022-12-07T06:49:02;100815.20;;;3.30
70831;BMP180;58451;51.550;7.208;2022-12-07T06:50:34;100814.40;;;3.30
70831;BMP180;58451;51.550;7.208;2022-12-07T06:52:14;100816.20;;;3.30
70831;BMP180;58451;51.550;7.208;2022-12-07T06:53:47;100817.60;;;3.30
70831;BMP180;58451;51.550;7.208;2022-12-07T06:55:19;100818.00;;;3.30
70831;BMP180;58451;51.550;7.208;2022-12-07T06:56:52;100818.60;;;3.26
70831;BMP180;58451;51.550;7.208;2022-12-07T06:58:25;100815.80;;;3.20
70831;BMP180;58451;51.550;7.208;2022-12-07T06:59:57;100817.80;;;3.20
70831;BMP180;58451;51.550;7.208;2022-12-07T07:01:30;100823.20;;;3.20
70831;BMP180;58451;51.550;7.208;2022-12-07T07:03:02;100824.40;;;3.20
70831;BMP180;58451;51.550;7.208;2022-12-07T07:04:34;100826.40;;;3.20
70831;BMP180;58451;51.550;7.208;2022-12-07T07:06:07;100823.60;;;3.20
70831;BMP180;58451;51.550;7.208;2022-12-07T07:07:39;100822.20;;;3.20
70831;BMP180;58451;51.550;7.208;2022-12-07T07:09:30;100817.40;;;3.20
70831;BMP180;58451;51.550;7.208;2022-12-07T07:11:03;100815.20;;;3.20
70831;BMP180;58451;51.550;7.208;2022-12-07T07:12:35;100817.60;;;3.20
70831;BMP180;58451;51.550;7.208;2022-12-07T07:14:07;100815.00;;;3.20
70831;BMP180;58451;51.550;7.208;2022-12-07T07:15:39;100820.00;;;3.20
70831;BMP180;58451;51.550;7.208;2022-12-07T07:17:11;100821.40;;;3.18
70831;BMP180;58451;51.550;7.208;2022-12-07T07:18:43;100822.80;;;3.20
70831;BMP180;58451;51.550;7.208;2022-12-07T07:20:18;100823.20;;;3.20
70831;BMP180;58451;51.550;7.208;2022-12-07T07:21:50;100822.00;;;3.20
70831;BMP180;58451;51.550;7.208;2022-12-07T07:23:23;100828.40;;;3.20
70831;BMP180;58451;51.550;7.208;2022-12-07T07:24:55;100822.40;;;3.20
70831;BMP180;58451;51.550;7.208;2022-12-07T07:26:28;100827.00;;;3.20
70831;BMP180;58451;51.550;7.208;2022-12-07T07:28:01;100825.80;;;3.20
70831;BMP180;58451;51.550;7.208;2022-12-07T07:29:39;100820.80;;;3.20
70831;BMP180;58451;51.550;7.208;2022-12-07T07:31:11;100823.20;;;3.20
70831;BMP180;58451;51.550;7.208;2022-12-07T07:32:43;100825.60;;;3.20
70831;BMP180;58451;51.550;7.208;2022-12-07T07:34:15;100826.80;;;3.20
70831;BMP180;58451;51.550;7.208;2022-12-07T07:35:46;100828.40;;;3.20
70831;BMP180;58451;51.550;7.208;2022-12-07T07:37:19;100827.80;;;3.20
70831;BMP180;58451;51.550;7.208;2022-12-07T07:38:52;100823.80;;;3.12
70831;BMP180;58451;51.550;7.208;2022-12-07T07:40:25;100824.40;;;3.10
70831;BMP180;58451;51.550;7.208;2022-12-07T07:47:24;100821.80;;;3.08
70831;BMP180;58451;51.550;7.208;2022-12-07T07:48:56;100817.20;;;3.04
70831;BMP180;58451;51.550;7.208;2022-12-07T07:50:29;100820.60;;;3.02
70831;BMP180;58451;51.550;7.208;2022-12-07T07:52:01;100831.20;;;3.00
70831;BMP180;58451;51.550;7.208;2022-12-07T07:53:33;100824.40;;;3.00
70831;BMP180;58451;51.550;7.208;2022-12-07T07:55:05;100824.20;;;3.00
70831;BMP180;58451;51.550;7.208;2022-12-07T07:56:40;100828.80;;;3.02
70831;BMP180;58451;51.550;7.208;2022-12-07T07:58:11;100829.00;;;3.06
70831;BMP180;58451;51.550;7.208;2022-12-07T07:59:43;100829.80;;;3.06
70831;BMP180;58451;51.550;7.208;2022-12-07T08:01:15;100824.60;;;3.10
70831;BMP180;58451;51.550;7.208;2022-12-07T08:02:48;100829.00;;;3.10
70831;BMP180;58451;51.550;7.208;2022-12-07T08:04:22;100831.00;;;3.10
70831;BMP180;58451;51.550;7.208;2022-12-07T08:06:03;100830.00;;;3.14
70831;BMP180;58451;51.550;7.208;2022-12-07T08:07:50;100836.00;;;3.20
70831;BMP180;58451;51.550;7.208;2022-12-07T08:09:22;100837.00;;;3.20
70831;BMP180;58451;51.550;7.208;2022-12-07T08:10:58;100830.60;;;3.20
70831;BMP180;58451;51.550;7.208;2022-12-07T08:12:53;100831.20;;;3.30
70831;BMP180;58451;51.550;7.208;2022-12-07T08:15:05;100841.00;;;3.30
70831;BMP180;58451;51.550;7.208;2022-12-07T08:16:58;100839.80;;;3.34
70831;BMP180;58451;51.550;7.208;2022-12-07T08:18:36;100837.00;;;3.40
70831;BMP180;58451;51.550;7.208;2022-12-07T08:20:09;100844.80;;;3.48
70831;BMP180;58451;51.550;7.208;2022-12-07T08:21:41;100843.20;;;3.50
70831;BMP180;58451;51.550;7.208;2022-12-07T08:23:12;100844.80;;;3.52
70831;BMP180;58451;51.550;7.208;2022-12-07T08:24:47;100837.40;;;3.60
70831;BMP180;58451;51.550;7.208;2022-12-07T08:26:20;100842.00;;;3.70
70831;BMP180;58451;51.550;7.208;2022-12-07T08:27:54;100846.60;;;3.70
70831;BMP180;58451;51.550;7.208;2022-12-07T08:29:26;100846.60;;;3.80
70831;BMP180;58451;51.550;7.208;2022-12-07T08:31:26;100849.20;;;3.84
70831;BMP180;58451;51.550;7.208;2022-12-07T08:33:04;100846.20;;;3.90
70831;BMP180;58451;51.550;7.208;2022-12-07T08:34:37;100845.60;;;3.90
70831;BMP180;58451;51.550;7.208;2022-12-07T08:36:12;100844.80;;;3.98
70831;BMP180;58451;51.550;7.208;2022-12-07T08:37:44;100847.00;;;4.00
70831;BMP180;58451;51.550;7.208;2022-12-07T08:39:16;100849.00;;;4.00
70831;BMP180;58451;51.550;7.208;2022-12-07T08:41:03;100858.60;;;4.00
70831;BMP180;58451;51.550;7.208;2022-12-07T08:42:35;100858.20;;;4.00
70831;BMP180;58451;51.550;7.208;2022-12-07T08:44:11;100851.80;;;4.08
70831;BMP180;58451;51.550;7.208;2022-12-07T08:45:43;100856.60;;;4.10
70831;BMP180;58451;51.550;7.208;2022-12-07T08:47:15;100851.60;;;4.10
70831;BMP180;58451;51.550;7.208;2022-12-07T08:49:03;100857.00;;;4.10
70831;BMP180;58451;51.550;7.208;2022-12-07T08:50:37;100857.20;;;4.10
70831;BMP180;58451;51.550;7.208;2022-12-07T08:52:18;100854.80;;;4.10
70831;BMP180;58451;51.550;7.208;2022-12-07T08:53:51;100852.20;;;4.16
70831;BMP180;58451;51.550;7.208;2022-12-07T08:55:24;100850.80;;;4.18
70831;BMP180;58451;51.550;7.208;2022-12-07T08:56:57;100850.40;;;4.20
70831;BMP180;58451;51.550;7.208;2022-12-07T08:58:31;100852.20;;;4.20
70831;BMP180;58451;51.550;7.208;2022-12-07T09:00:05;100845.00;;;4.20
70831;BMP180;58451;51.550;7.208;2022-12-07T09:01:37;100846.60;;;4.20
70831;BMP180;58451;51.550;7.208;2022-12-07T09:03:09;100842.60;;;4.20
70831;BMP180;58451;51.550;7.208;2022-12-07T09:04:41;100841.60;;;4.30
70831;BMP180;58451;51.550;7.208;2022-12-07T09:06:12;100845.40;;;4.30
70831;BMP180;58451;51.550;7.208;2022-12-07T09:07:48;100846.20;;;4.30
70831;BMP180;58451;51.550;7.208;2022-12-07T09:09:22;100842.20;;;4.34
70831;BMP180;58451;51.550;7.208;2022-12-07T09:10:53;100842.00;;;4.40
70831;BMP180;58451;51.550;7.208;2022-12-07T09:12:25;100839.20;;;4.40
70831;BMP180;58451;51.550;7.208;2022-12-07T09:13:57;100849.00;;;4.40
70831;BMP180;58451;51.550;7.208;2022-12-07T09:15:30;100847.20;;;4.50
70831;BMP180;58451;51.550;7.208;2022-12-07T09:17:10;100849.20;;;4.50
70831;BMP180;58451;51.550;7.208;2022-12-07T09:18:46;100850.60;;;4.50
70831;BMP180;58451;51.550;7.208;2022-12-07T09:20:18;100852.60;;;4.50
70831;BMP180;58451;51.550;7.208;2022-12-07T09:21:58;100849.60;;;4.50
70831;BMP180;58451;51.550;7.208;2022-12-07T09:23:30;100852.20;;;4.54
70831;BMP180;58451;51.550;7.208;2022-12-07T09:25:04;100851.00;;;4.60
70831;BMP180;58451;51.550;7.208;2022-12-07T09:26:36;100849.20;;;4.60
70831;BMP180;58451;51.550;7.208;2022-12-07T09:28:10;100850.60;;;4.60
70831;BMP180;58451;51.550;7.208;2022-12-07T09:29:42;100846.40;;;4.60
70831;BMP180;58451;51.550;7.208;2022-12-07T09:31:14;100847.00;;;4.60
70831;BMP180;58451;51.550;7.208;2022-12-07T09:32:56;100848.80;;;4.60
70831;BMP180;58451;51.550;7.208;2022-12-07T09:34:31;100850.60;;;4.70
70831;BMP180;58451;51.550;7.208;2022-12-07T09:36:04;100846.00;;;4.70
70831;BMP180;58451;51.550;7.208;2022-12-07T09:37:36;100848.80;;;4.70
70831;BMP180;58451;51.550;7.208;2022-12-07T09:39:08;100848.80;;;4.78
70831;BMP180;58451;51.550;7.208;2022-12-07T09:40:43;100849.20;;;4.72
70831;BMP180;58451;51.550;7.208;2022-12-07T09:42:38;100846.80;;;4.70
70831;BMP180;58451;51.550;7.208;2022-12-07T09:44:24;100847.80;;;4.70
70831;BMP180;58451;51.550;7.208;2022-12-07T09:45:56;100843.40;;;4.70
70831;BMP180;58451;51.550;7.208;2022-12-07T09:47:29;100845.40;;;4.74
70831;BMP180;58451;51.550;7.208;2022-12-07T09:49:01;100840.60;;;4.80
70831;BMP180;58451;51.550;7.208;2022-12-07T09:50:33;100842.40;;;4.80
70831;BMP180;58451;51.550;7.208;2022-12-07T09:53:42;100839.00;;;4.76
70831;BMP180;58451;51.550;7.208;2022-12-07T09:55:29;100839.00;;;4.76
70831;BMP180;58451;51.550;7.208;2022-12-07T09:57:02;100831.20;;;4.80
70831;BMP180;58451;51.550;7.208;2022-12-07T09:58:34;100828.20;;;4.80
70831;BMP180;58451;51.550;7.208;2022-12-07T10:00:13;100826.60;;;4.80
70831;BMP180;58451;51.550;7.208;2022-12-07T10:01:49;100825.00;;;4.80
70831;BMP180;58451;51.550;7.208;2022-12-07T10:03:21;100820.00;;;4.78